Forside
METAR-TAF:

METAR-TAF

Lufthavne :

Fairfield Municipal Airport

Fairfield, Iowa, USA

Breddekreds: 41-03N, længdekreds: 091-59W, højde: 244 m

Aktuelle vejr

Denne rapport blev lavet for 18 minutter siden, kl. 15:35 UTC
Vind 8 kt fra østsydøst
Temperatur 21°C
Fugtighed 60%
Tryk 1007 hPa
Sigt: 16.1 km
skyfri

METAR: KFFL 081535Z AUTO 12008KT 10SM CLR 21/13 A2973 RMK A01

Tid: 10:53 (15:53 UTC)


TAF: fraværende

Vejrobservationer og prognoser fra mere end 4000 lufthavne (METAR og TAF).

De gule og røde prikker repræsenterer de meteorologiske stationer.

Flyt musen over at se navnet på stationen.

Så klik over at se vejr observationer og prognoser.

At skifte det kort: Klik på de grønne knapper med et sort kors for at zoome ind; på den grønne knap med en bindestreg for at zoome ud; eller på de grønne pile for tilstødende kort.


METAR-TAF: